sensor_id;sensor_type;location;lat;lon;timestamp;P1;durP1;ratioP1;P2;durP2;ratioP2
75667;SDS011;64266;48.798;44.756;2023-04-03T00:00:57;17.40;;;8.23;;
75667;SDS011;64266;48.798;44.756;2023-04-03T00:06:00;12.40;;;6.47;;
75667;SDS011;64266;48.798;44.756;2023-04-03T00:11:03;18.15;;;7.50;;
75667;SDS011;64266;48.798;44.756;2023-04-03T00:16:07;20.60;;;11.25;;
75667;SDS011;64266;48.798;44.756;2023-04-03T00:21:12;30.08;;;14.23;;
75667;SDS011;64266;48.798;44.756;2023-04-03T00:26:15;28.48;;;13.98;;
75667;SDS011;64266;48.798;44.756;2023-04-03T00:31:18;30.15;;;17.17;;
75667;SDS011;64266;48.798;44.756;2023-04-03T00:36:22;33.45;;;17.17;;
75667;SDS011;64266;48.798;44.756;2023-04-03T00:41:24;32.58;;;15.77;;
75667;SDS011;64266;48.798;44.756;2023-04-03T00:46:27;34.70;;;14.73;;
75667;SDS011;64266;48.798;44.756;2023-04-03T00:51:30;28.83;;;14.70;;
75667;SDS011;64266;48.798;44.756;2023-04-03T00:56:33;36.05;;;14.68;;
75667;SDS011;64266;48.798;44.756;2023-04-03T01:01:38;35.38;;;16.08;;
75667;SDS011;64266;48.798;44.756;2023-04-03T01:06:41;35.63;;;17.67;;
75667;SDS011;64266;48.798;44.756;2023-04-03T01:11:44;36.03;;;19.63;;
75667;SDS011;64266;48.798;44.756;2023-04-03T01:16:53;28.65;;;14.32;;
75667;SDS011;64266;48.798;44.756;2023-04-03T01:22:01;23.77;;;6.55;;
75667;SDS011;64266;48.798;44.756;2023-04-03T01:27:17;11.27;;;3.65;;
75667;SDS011;64266;48.798;44.756;2023-04-03T01:32:20;10.60;;;3.50;;
75667;SDS011;64266;48.798;44.756;2023-04-03T01:37:23;13.32;;;3.20;;
75667;SDS011;64266;48.798;44.756;2023-04-03T01:42:26;14.75;;;4.78;;
75667;SDS011;64266;48.798;44.756;2023-04-03T01:47:28;18.52;;;7.43;;
75667;SDS011;64266;48.798;44.756;2023-04-03T01:52:31;29.35;;;14.77;;
75667;SDS011;64266;48.798;44.756;2023-04-03T01:57:33;28.20;;;16.67;;
75667;SDS011;64266;48.798;44.756;2023-04-03T02:02:37;28.80;;;13.80;;
75667;SDS011;64266;48.798;44.756;2023-04-03T02:07:40;17.23;;;8.77;;
75667;SDS011;64266;48.798;44.756;2023-04-03T02:12:43;12.02;;;5.55;;
75667;SDS011;64266;48.798;44.756;2023-04-03T02:17:46;27.50;;;9.68;;
75667;SDS011;64266;48.798;44.756;2023-04-03T02:22:49;26.50;;;6.60;;
75667;SDS011;64266;48.798;44.756;2023-04-03T02:27:52;21.55;;;7.45;;
75667;SDS011;64266;48.798;44.756;2023-04-03T02:32:56;31.90;;;10.73;;
75667;SDS011;64266;48.798;44.756;2023-04-03T02:38:00;33.70;;;14.57;;
75667;SDS011;64266;48.798;44.756;2023-04-03T02:43:04;21.63;;;8.07;;
75667;SDS011;64266;48.798;44.756;2023-04-03T02:48:08;19.10;;;6.85;;
75667;SDS011;64266;48.798;44.756;2023-04-03T02:53:11;20.35;;;7.05;;
75667;SDS011;64266;48.798;44.756;2023-04-03T02:58:14;19.08;;;6.50;;
75667;SDS011;64266;48.798;44.756;2023-04-03T03:03:18;20.40;;;5.60;;
75667;SDS011;64266;48.798;44.756;2023-04-03T03:08:20;15.60;;;4.20;;
75667;SDS011;64266;48.798;44.756;2023-04-03T03:13:23;19.60;;;7.10;;
75667;SDS011;64266;48.798;44.756;2023-04-03T03:18:26;29.90;;;11.18;;
75667;SDS011;64266;48.798;44.756;2023-04-03T03:23:30;32.95;;;13.77;;
75667;SDS011;64266;48.798;44.756;2023-04-03T03:28:36;31.27;;;14.00;;
75667;SDS011;64266;48.798;44.756;2023-04-03T03:33:41;36.17;;;15.45;;
75667;SDS011;64266;48.798;44.756;2023-04-03T03:38:44;28.90;;;11.88;;
75667;SDS011;64266;48.798;44.756;2023-04-03T03:43:47;25.20;;;5.78;;
75667;SDS011;64266;48.798;44.756;2023-04-03T03:48:51;16.20;;;4.53;;
75667;SDS011;64266;48.798;44.756;2023-04-03T03:53:54;28.38;;;4.30;;
75667;SDS011;64266;48.798;44.756;2023-04-03T03:58:57;20.38;;;3.58;;
75667;SDS011;64266;48.798;44.756;2023-04-03T04:04:00;17.90;;;3.63;;
75667;SDS011;64266;48.798;44.756;2023-04-03T04:09:05;16.80;;;4.00;;
75667;SDS011;64266;48.798;44.756;2023-04-03T04:14:08;13.73;;;3.42;;
75667;SDS011;64266;48.798;44.756;2023-04-03T04:19:12;18.88;;;3.13;;
75667;SDS011;64266;48.798;44.756;2023-04-03T04:24:17;18.10;;;3.05;;
75667;SDS011;64266;48.798;44.756;2023-04-03T04:29:21;22.13;;;3.97;;
75667;SDS011;64266;48.798;44.756;2023-04-03T04:34:25;27.80;;;6.93;;
75667;SDS011;64266;48.798;44.756;2023-04-03T04:39:28;48.97;;;18.63;;
75667;SDS011;64266;48.798;44.756;2023-04-03T04:44:32;42.10;;;10.57;;
75667;SDS011;64266;48.798;44.756;2023-04-03T04:49:35;30.40;;;9.00;;
75667;SDS011;64266;48.798;44.756;2023-04-03T04:54:39;32.58;;;7.85;;
75667;SDS011;64266;48.798;44.756;2023-04-03T04:59:45;35.72;;;11.07;;
75667;SDS011;64266;48.798;44.756;2023-04-03T05:04:47;34.25;;;8.25;;
75667;SDS011;64266;48.798;44.756;2023-04-03T05:09:57;38.10;;;10.30;;
75667;SDS011;64266;48.798;44.756;2023-04-03T05:15:03;40.28;;;11.90;;
75667;SDS011;64266;48.798;44.756;2023-04-03T05:20:09;58.08;;;17.17;;
75667;SDS011;64266;48.798;44.756;2023-04-03T05:25:15;70.07;;;18.83;;
75667;SDS011;64266;48.798;44.756;2023-04-03T05:30:19;65.63;;;23.10;;
75667;SDS011;64266;48.798;44.756;2023-04-03T05:35:24;60.25;;;19.70;;
75667;SDS011;64266;48.798;44.756;2023-04-03T05:40:32;73.32;;;20.45;;
75667;SDS011;64266;48.798;44.756;2023-04-03T05:45:37;83.60;;;24.42;;
75667;SDS011;64266;48.798;44.756;2023-04-03T05:50:40;101.72;;;29.60;;
75667;SDS011;64266;48.798;44.756;2023-04-03T05:55:52;84.00;;;25.30;;
75667;SDS011;64266;48.798;44.756;2023-04-03T06:00:57;106.68;;;31.35;;
75667;SDS011;64266;48.798;44.756;2023-04-03T06:06:02;101.18;;;33.63;;
75667;SDS011;64266;48.798;44.756;2023-04-03T06:11:06;105.18;;;31.67;;
75667;SDS011;64266;48.798;44.756;2023-04-03T06:16:12;91.78;;;30.73;;
75667;SDS011;64266;48.798;44.756;2023-04-03T06:21:18;111.35;;;35.15;;
75667;SDS011;64266;48.798;44.756;2023-04-03T06:26:23;103.45;;;28.42;;
75667;SDS011;64266;48.798;44.756;2023-04-03T06:31:26;76.85;;;17.50;;
75667;SDS011;64266;48.798;44.756;2023-04-03T06:36:29;87.10;;;16.10;;
75667;SDS011;64266;48.798;44.756;2023-04-03T06:41:33;75.18;;;14.45;;
75667;SDS011;64266;48.798;44.756;2023-04-03T06:46:38;60.15;;;12.50;;
75667;SDS011;64266;48.798;44.756;2023-04-03T06:51:44;63.38;;;12.85;;
75667;SDS011;64266;48.798;44.756;2023-04-03T06:56:49;78.97;;;13.77;;
75667;SDS011;64266;48.798;44.756;2023-04-03T07:12:12;65.57;;;12.57;;
75667;SDS011;64266;48.798;44.756;2023-04-03T07:17:15;78.15;;;11.80;;
75667;SDS011;64266;48.798;44.756;2023-04-03T07:22:18;56.10;;;9.98;;
75667;SDS011;64266;48.798;44.756;2023-04-03T07:27:21;71.50;;;12.65;;
75667;SDS011;64266;48.798;44.756;2023-04-03T07:32:25;85.30;;;13.38;;
75667;SDS011;64266;48.798;44.756;2023-04-03T07:37:28;74.72;;;8.95;;
75667;SDS011;64266;48.798;44.756;2023-04-03T07:42:32;68.40;;;9.88;;
75667;SDS011;64266;48.798;44.756;2023-04-03T07:47:34;68.90;;;8.23;;
75667;SDS011;64266;48.798;44.756;2023-04-03T07:52:39;74.20;;;8.63;;
75667;SDS011;64266;48.798;44.756;2023-04-03T07:57:41;52.58;;;6.00;;
75667;SDS011;64266;48.798;44.756;2023-04-03T08:02:45;65.65;;;7.28;;
75667;SDS011;64266;48.798;44.756;2023-04-03T08:07:58;52.38;;;6.43;;
75667;SDS011;64266;48.798;44.756;2023-04-03T08:13:02;53.78;;;5.93;;
75667;SDS011;64266;48.798;44.756;2023-04-03T08:18:09;45.33;;;5.25;;
75667;SDS011;64266;48.798;44.756;2023-04-03T08:23:15;65.30;;;7.30;;
75667;SDS011;64266;48.798;44.756;2023-04-03T08:28:21;46.28;;;5.90;;
75667;SDS011;64266;48.798;44.756;2023-04-03T08:33:25;61.92;;;5.63;;
75667;SDS011;64266;48.798;44.756;2023-04-03T08:38:28;63.22;;;5.47;;
75667;SDS011;64266;48.798;44.756;2023-04-03T08:49:10;56.40;;;5.15;;
75667;SDS011;64266;48.798;44.756;2023-04-03T08:54:30;44.85;;;4.82;;
75667;SDS011;64266;48.798;44.756;2023-04-03T08:59:39;61.97;;;19.05;;
75667;SDS011;64266;48.798;44.756;2023-04-03T09:04:44;48.80;;;5.18;;
75667;SDS011;64266;48.798;44.756;2023-04-03T09:09:49;43.15;;;3.90;;
75667;SDS011;64266;48.798;44.756;2023-04-03T09:20:54;88.78;;;17.70;;
75667;SDS011;64266;48.798;44.756;2023-04-03T09:25:45;56.13;;;4.75;;
75667;SDS011;64266;48.798;44.756;2023-04-03T09:30:48;54.15;;;5.43;;
75667;SDS011;64266;48.798;44.756;2023-04-03T09:35:51;47.03;;;4.38;;
75667;SDS011;64266;48.798;44.756;2023-04-03T09:41:04;61.35;;;11.63;;
75667;SDS011;64266;48.798;44.756;2023-04-03T09:51:29;51.00;;;9.10;;
75667;SDS011;64266;48.798;44.756;2023-04-03T10:01:58;34.35;;;3.67;;
75667;SDS011;64266;48.798;44.756;2023-04-03T10:07:31;44.63;;;4.90;;
75667;SDS011;64266;48.798;44.756;2023-04-03T10:13:09;34.20;;;3.85;;
75667;SDS011;64266;48.798;44.756;2023-04-03T10:18:48;39.08;;;5.10;;
75667;SDS011;64266;48.798;44.756;2023-04-03T10:34:37;43.42;;;6.25;;
75667;SDS011;64266;48.798;44.756;2023-04-03T11:02:16;52.33;;;5.03;;
75667;SDS011;64266;48.798;44.756;2023-04-03T11:07:39;40.90;;;3.58;;
75667;SDS011;64266;48.798;44.756;2023-04-03T11:12:56;48.20;;;4.43;;
75667;SDS011;64266;48.798;44.756;2023-04-03T11:23:49;36.38;;;3.47;;
75667;SDS011;64266;48.798;44.756;2023-04-03T11:28:56;45.83;;;7.45;;
75667;SDS011;64266;48.798;44.756;2023-04-03T11:34:12;37.42;;;4.05;;
75667;SDS011;64266;48.798;44.756;2023-04-03T11:39:39;42.08;;;4.32;;
75667;SDS011;64266;48.798;44.756;2023-04-03T12:00:53;39.65;;;5.03;;
75667;SDS011;64266;48.798;44.756;2023-04-03T12:11:30;54.90;;;5.88;;
75667;SDS011;64266;48.798;44.756;2023-04-03T12:48:24;31.30;;;4.75;;
75667;SDS011;64266;48.798;44.756;2023-04-03T12:53:32;50.17;;;14.25;;
75667;SDS011;64266;48.798;44.756;2023-04-03T12:58:42;49.58;;;8.35;;
75667;SDS011;64266;48.798;44.756;2023-04-03T13:03:56;41.13;;;5.70;;
75667;SDS011;64266;48.798;44.756;2023-04-03T13:09:02;60.22;;;4.95;;
75667;SDS011;64266;48.798;44.756;2023-04-03T13:14:23;41.75;;;4.35;;
75667;SDS011;64266;48.798;44.756;2023-04-03T13:19:34;40.92;;;4.40;;
75667;SDS011;64266;48.798;44.756;2023-04-03T13:24:41;49.72;;;4.80;;
75667;SDS011;64266;48.798;44.756;2023-04-03T13:29:52;37.95;;;4.57;;
75667;SDS011;64266;48.798;44.756;2023-04-03T13:35:23;31.45;;;3.67;;
75667;SDS011;64266;48.798;44.756;2023-04-03T13:40:57;47.72;;;4.05;;
75667;SDS011;64266;48.798;44.756;2023-04-03T13:51:18;51.20;;;4.47;;
75667;SDS011;64266;48.798;44.756;2023-04-03T13:56:39;44.13;;;3.72;;
75667;SDS011;64266;48.798;44.756;2023-04-03T14:01:48;48.28;;;9.15;;
75667;SDS011;64266;48.798;44.756;2023-04-03T14:06:56;47.50;;;4.43;;
75667;SDS011;64266;48.798;44.756;2023-04-03T14:12:04;50.85;;;4.43;;
75667;SDS011;64266;48.798;44.756;2023-04-03T14:17:21;54.42;;;5.43;;
75667;SDS011;64266;48.798;44.756;2023-04-03T14:22:37;37.90;;;4.18;;
75667;SDS011;64266;48.798;44.756;2023-04-03T14:27:42;47.33;;;5.25;;
75667;SDS011;64266;48.798;44.756;2023-04-03T14:32:47;42.78;;;4.95;;
75667;SDS011;64266;48.798;44.756;2023-04-03T14:37:51;47.15;;;4.60;;
75667;SDS011;64266;48.798;44.756;2023-04-03T14:42:54;37.40;;;4.60;;
75667;SDS011;64266;48.798;44.756;2023-04-03T14:48:00;53.40;;;5.07;;
75667;SDS011;64266;48.798;44.756;2023-04-03T14:53:02;52.00;;;4.65;;
75667;SDS011;64266;48.798;44.756;2023-04-03T14:58:08;56.85;;;5.28;;
75667;SDS011;64266;48.798;44.756;2023-04-03T15:03:16;55.08;;;5.35;;
75667;SDS011;64266;48.798;44.756;2023-04-03T15:08:24;44.03;;;4.38;;
75667;SDS011;64266;48.798;44.756;2023-04-03T15:13:29;43.88;;;4.15;;
75667;SDS011;64266;48.798;44.756;2023-04-03T15:18:34;40.90;;;4.00;;
75667;SDS011;64266;48.798;44.756;2023-04-03T15:23:39;47.38;;;4.53;;
75667;SDS011;64266;48.798;44.756;2023-04-03T15:28:42;44.03;;;3.83;;
75667;SDS011;64266;48.798;44.756;2023-04-03T15:33:47;51.67;;;4.78;;
75667;SDS011;64266;48.798;44.756;2023-04-03T15:38:50;47.75;;;4.80;;
75667;SDS011;64266;48.798;44.756;2023-04-03T15:43:53;60.35;;;5.35;;
75667;SDS011;64266;48.798;44.756;2023-04-03T15:48:55;46.60;;;4.38;;
75667;SDS011;64266;48.798;44.756;2023-04-03T15:53:58;56.28;;;5.05;;
75667;SDS011;64266;48.798;44.756;2023-04-03T15:59:00;49.40;;;5.50;;
75667;SDS011;64266;48.798;44.756;2023-04-03T16:04:03;44.90;;;5.07;;
75667;SDS011;64266;48.798;44.756;2023-04-03T16:09:06;47.83;;;5.78;;
75667;SDS011;64266;48.798;44.756;2023-04-03T16:14:10;47.30;;;4.75;;
75667;SDS011;64266;48.798;44.756;2023-04-03T16:19:12;50.00;;;4.95;;
75667;SDS011;64266;48.798;44.756;2023-04-03T16:24:16;43.08;;;4.78;;
75667;SDS011;64266;48.798;44.756;2023-04-03T16:29:20;48.00;;;4.90;;
75667;SDS011;64266;48.798;44.756;2023-04-03T16:34:22;66.45;;;5.97;;
75667;SDS011;64266;48.798;44.756;2023-04-03T16:39:28;48.53;;;6.15;;
75667;SDS011;64266;48.798;44.756;2023-04-03T16:44:42;50.08;;;5.85;;
75667;SDS011;64266;48.798;44.756;2023-04-03T16:49:45;51.33;;;6.72;;
75667;SDS011;64266;48.798;44.756;2023-04-03T16:54:49;54.28;;;7.60;;
75667;SDS011;64266;48.798;44.756;2023-04-03T16:59:51;46.60;;;7.38;;
75667;SDS011;64266;48.798;44.756;2023-04-03T17:04:58;48.25;;;6.75;;
75667;SDS011;64266;48.798;44.756;2023-04-03T17:10:00;45.08;;;6.90;;
75667;SDS011;64266;48.798;44.756;2023-04-03T17:15:04;44.90;;;7.10;;
75667;SDS011;64266;48.798;44.756;2023-04-03T17:20:06;52.25;;;6.90;;
75667;SDS011;64266;48.798;44.756;2023-04-03T17:25:09;43.30;;;6.57;;
75667;SDS011;64266;48.798;44.756;2023-04-03T17:30:13;43.10;;;6.90;;
75667;SDS011;64266;48.798;44.756;2023-04-03T17:35:18;39.33;;;5.60;;
75667;SDS011;64266;48.798;44.756;2023-04-03T17:40:21;39.78;;;6.20;;
75667;SDS011;64266;48.798;44.756;2023-04-03T17:45:25;44.22;;;6.47;;
75667;SDS011;64266;48.798;44.756;2023-04-03T17:50:28;38.83;;;5.30;;
75667;SDS011;64266;48.798;44.756;2023-04-03T17:55:35;41.65;;;5.78;;
75667;SDS011;64266;48.798;44.756;2023-04-03T18:00:39;41.78;;;6.53;;
75667;SDS011;64266;48.798;44.756;2023-04-03T18:05:42;33.72;;;5.78;;
75667;SDS011;64266;48.798;44.756;2023-04-03T18:10:44;37.58;;;5.53;;
75667;SDS011;64266;48.798;44.756;2023-04-03T18:15:48;39.80;;;6.95;;
75667;SDS011;64266;48.798;44.756;2023-04-03T18:20:50;41.28;;;6.53;;
75667;SDS011;64266;48.798;44.756;2023-04-03T18:25:53;45.05;;;7.30;;
75667;SDS011;64266;48.798;44.756;2023-04-03T18:30:56;56.20;;;7.68;;
75667;SDS011;64266;48.798;44.756;2023-04-03T18:36:01;37.65;;;6.38;;
75667;SDS011;64266;48.798;44.756;2023-04-03T18:41:06;40.63;;;7.05;;
75667;SDS011;64266;48.798;44.756;2023-04-03T18:46:10;34.80;;;6.55;;
75667;SDS011;64266;48.798;44.756;2023-04-03T18:51:12;44.00;;;6.60;;
75667;SDS011;64266;48.798;44.756;2023-04-03T18:56:15;37.05;;;5.88;;
75667;SDS011;64266;48.798;44.756;2023-04-03T19:01:18;47.42;;;7.18;;
75667;SDS011;64266;48.798;44.756;2023-04-03T19:06:21;42.00;;;7.45;;
75667;SDS011;64266;48.798;44.756;2023-04-03T19:11:24;43.28;;;7.95;;
75667;SDS011;64266;48.798;44.756;2023-04-03T19:16:32;48.35;;;8.15;;
75667;SDS011;64266;48.798;44.756;2023-04-03T19:21:55;29.23;;;6.65;;
75667;SDS011;64266;48.798;44.756;2023-04-03T19:26:58;33.47;;;7.05;;
75667;SDS011;64266;48.798;44.756;2023-04-03T19:32:01;36.38;;;7.22;;
75667;SDS011;64266;48.798;44.756;2023-04-03T19:37:04;28.38;;;6.70;;
75667;SDS011;64266;48.798;44.756;2023-04-03T19:42:07;33.40;;;6.13;;
75667;SDS011;64266;48.798;44.756;2023-04-03T19:47:10;25.25;;;5.47;;
75667;SDS011;64266;48.798;44.756;2023-04-03T19:52:13;20.27;;;5.45;;
75667;SDS011;64266;48.798;44.756;2023-04-03T19:57:21;21.17;;;4.35;;
75667;SDS011;64266;48.798;44.756;2023-04-03T20:02:23;12.73;;;3.70;;
75667;SDS011;64266;48.798;44.756;2023-04-03T20:07:26;15.32;;;4.25;;
75667;SDS011;64266;48.798;44.756;2023-04-03T20:12:29;16.20;;;4.03;;
75667;SDS011;64266;48.798;44.756;2023-04-03T20:17:32;14.38;;;3.42;;
75667;SDS011;64266;48.798;44.756;2023-04-03T20:22:36;11.30;;;3.05;;
75667;SDS011;64266;48.798;44.756;2023-04-03T20:32:43;14.32;;;3.15;;
75667;SDS011;64266;48.798;44.756;2023-04-03T20:37:47;13.85;;;3.50;;
75667;SDS011;64266;48.798;44.756;2023-04-03T20:42:50;20.63;;;3.40;;
75667;SDS011;64266;48.798;44.756;2023-04-03T20:47:53;25.15;;;3.90;;
75667;SDS011;64266;48.798;44.756;2023-04-03T20:52:56;14.93;;;3.50;;
75667;SDS011;64266;48.798;44.756;2023-04-03T20:57:59;15.85;;;3.22;;
75667;SDS011;64266;48.798;44.756;2023-04-03T21:03:03;16.30;;;4.55;;
75667;SDS011;64266;48.798;44.756;2023-04-03T21:19:31;16.92;;;4.53;;
75667;SDS011;64266;48.798;44.756;2023-04-03T21:24:34;20.65;;;4.43;;
75667;SDS011;64266;48.798;44.756;2023-04-03T21:29:37;11.63;;;3.90;;
75667;SDS011;64266;48.798;44.756;2023-04-03T21:34:39;9.18;;;3.10;;
75667;SDS011;64266;48.798;44.756;2023-04-03T21:39:43;13.18;;;3.50;;
75667;SDS011;64266;48.798;44.756;2023-04-03T21:44:46;13.10;;;3.30;;
75667;SDS011;64266;48.798;44.756;2023-04-03T21:49:51;13.82;;;3.15;;
75667;SDS011;64266;48.798;44.756;2023-04-03T21:54:54;11.32;;;3.67;;
75667;SDS011;64266;48.798;44.756;2023-04-03T21:59:57;12.52;;;4.35;;
75667;SDS011;64266;48.798;44.756;2023-04-03T22:04:59;19.40;;;4.50;;
75667;SDS011;64266;48.798;44.756;2023-04-03T22:10:03;21.20;;;4.50;;
75667;SDS011;64266;48.798;44.756;2023-04-03T22:15:08;11.80;;;4.47;;
75667;SDS011;64266;48.798;44.756;2023-04-03T22:20:11;16.55;;;5.10;;
75667;SDS011;64266;48.798;44.756;2023-04-03T22:25:14;16.92;;;4.75;;
75667;SDS011;64266;48.798;44.756;2023-04-03T22:30:18;14.10;;;4.80;;
75667;SDS011;64266;48.798;44.756;2023-04-03T22:35:21;14.27;;;5.40;;
75667;SDS011;64266;48.798;44.756;2023-04-03T22:40:25;10.80;;;4.55;;
75667;SDS011;64266;48.798;44.756;2023-04-03T22:45:28;12.52;;;5.05;;
75667;SDS011;64266;48.798;44.756;2023-04-03T22:50:31;15.40;;;5.05;;
75667;SDS011;64266;48.798;44.756;2023-04-03T22:55:34;11.00;;;4.75;;
75667;SDS011;64266;48.798;44.756;2023-04-03T23:00:38;15.70;;;5.22;;
75667;SDS011;64266;48.798;44.756;2023-04-03T23:05:41;19.13;;;5.30;;
75667;SDS011;64266;48.798;44.756;2023-04-03T23:10:44;14.85;;;5.50;;
75667;SDS011;64266;48.798;44.756;2023-04-03T23:15:58;14.20;;;5.68;;
75667;SDS011;64266;48.798;44.756;2023-04-03T23:21:01;13.52;;;5.45;;
75667;SDS011;64266;48.798;44.756;2023-04-03T23:26:06;14.40;;;5.88;;
75667;SDS011;64266;48.798;44.756;2023-04-03T23:36:13;13.98;;;6.25;;
75667;SDS011;64266;48.798;44.756;2023-04-03T23:41:19;13.45;;;6.60;;
75667;SDS011;64266;48.798;44.756;2023-04-03T23:46:22;14.13;;;5.93;;
75667;SDS011;64266;48.798;44.756;2023-04-03T23:51:25;11.07;;;5.18;;
75667;SDS011;64266;48.798;44.756;2023-04-03T23:56:27;17.38;;;6.43;;
